Time;durP1;ratioP1;P1;durP2;ratioP2;P2;SDS_P1;SDS_P2;PMS_P1;PMS_P2;Temp;Humidity;BMP_temperature;BMP_pressure;BME280_temperature;BME280_humidity;BME280_pressure;Samples;Min_cycle;Max_cycle;Signal;HPM_P1;HPM_P2
2023/09/17 00:00:30;;;;;;;1.08;0.98;;;;;;;17.31;100.00;100107.44;4916716;29;20046;-93
2023/09/17 00:02:55;;;;;;;1.08;0.85;;;;;;;17.31;100.00;100102.56;4925214;29;20464;-92
2023/09/17 00:05:22;;;;;;;0.17;0.17;;;;;;;17.35;100.00;100116.41;4918853;29;20046;-92
2023/09/17 00:07:47;;;;;;;0.82;0.80;;;;;;;17.38;100.00;100107.03;4915740;29;20044;-93
2023/09/17 00:10:13;;;;;;;1.20;0.30;;;;;;;17.34;100.00;100112.06;4916285;28;20035;-92
2023/09/17 00:12:39;;;;;;;0.20;0.20;;;;;;;17.27;100.00;100105.56;4908554;29;20408;-93
2023/09/17 00:15:05;;;;;;;0.75;0.75;;;;;;;17.22;100.00;100102.66;4883218;29;20582;-93
2023/09/17 00:17:31;;;;;;;0.80;0.80;;;;;;;17.27;100.00;100112.44;4910159;29;20334;-92
2023/09/17 00:19:57;;;;;;;0.73;0.70;;;;;;;17.30;100.00;100111.47;4934530;29;20104;-93
2023/09/17 00:22:22;;;;;;;0.28;0.28;;;;;;;17.21;100.00;100101.13;4915566;29;20051;-93
2023/09/17 00:24:48;;;;;;;0.95;0.70;;;;;;;17.24;100.00;100100.16;4927715;29;20420;-93
2023/09/17 00:27:13;;;;;;;0.43;0.40;;;;;;;17.27;100.00;100101.97;4925441;29;20125;-92
2023/09/17 00:29:39;;;;;;;1.00;0.45;;;;;;;17.14;100.00;100087.47;4920557;29;20039;-92
2023/09/17 00:32:04;;;;;;;0.50;0.50;;;;;;;17.12;100.00;100073.16;4902737;29;20078;-92
2023/09/17 00:34:30;;;;;;;0.15;0.15;;;;;;;17.18;100.00;100077.63;4934353;29;20067;-92
2023/09/17 00:36:56;;;;;;;0.43;0.43;;;;;;;17.16;100.00;100090.56;4915337;29;20043;-92
2023/09/17 00:39:23;;;;;;;0.43;0.40;;;;;;;17.16;100.00;100073.75;4932167;29;20035;-92
2023/09/17 00:41:48;;;;;;;1.02;0.80;;;;;;;17.17;100.00;100086.50;4908489;29;20106;-92
2023/09/17 00:44:15;;;;;;;2.85;0.85;;;;;;;17.16;100.00;100079.34;4914939;29;20583;-96
2023/09/17 00:46:41;;;;;;;1.75;0.80;;;;;;;17.24;100.00;100100.16;4907489;29;20055;-92
2023/09/17 00:49:13;;;;;;;0.88;0.38;;;;;;;17.16;100.00;100093.38;4897995;29;20044;-92
2023/09/17 00:51:40;;;;;;;0.63;0.50;;;;;;;17.17;100.00;100094.94;4909162;29;20047;-93
2023/09/17 00:54:06;;;;;;;0.90;0.80;;;;;;;17.13;100.00;100085.94;4919651;29;20543;-92
2023/09/17 00:56:31;;;;;;;0.80;0.80;;;;;;;17.11;100.00;100082.81;4917285;29;20036;-93
2023/09/17 00:58:57;;;;;;;0.25;0.25;;;;;;;17.14;100.00;100065.06;4914376;29;20043;-92
2023/09/17 01:04:07;;;;;;;0.38;0.38;;;;;;;17.20;100.00;100068.72;4624712;23;20047;-91
2023/09/17 01:06:35;;;;;;;0.43;0.43;;;;;;;17.26;100.00;100075.22;4936840;28;20103;-91
2023/09/17 01:09:01;;;;;;;0.43;0.43;;;;;;;17.23;100.00;100070.56;4951051;28;20027;-91
2023/09/17 01:11:28;;;;;;;0.32;0.32;;;;;;;17.33;100.00;100083.25;4928600;29;20614;-91
2023/09/17 01:14:10;;;;;;;1.08;0.82;;;;;;;17.23;100.00;100065.72;4961897;28;20474;-92
2023/09/17 01:16:35;;;;;;;0.40;0.40;;;;;;;17.36;100.00;100082.28;4928035;29;20047;-93
2023/09/17 01:19:03;;;;;;;0.75;0.75;;;;;;;17.38;100.00;100085.38;4949944;28;20035;-91
2023/09/17 01:22:02;;;;;;;0.68;0.40;;;;;;;17.40;100.00;100077.25;4936711;28;20122;-92
2023/09/17 01:24:49;;;;;;;0.75;0.35;;;;;;;17.37;100.00;100094.28;4926349;28;20051;-91
2023/09/17 01:27:18;;;;;;;0.52;0.52;;;;;;;17.31;100.00;100085.75;4955416;28;20082;-91
2023/09/17 01:29:46;;;;;;;0.30;0.30;;;;;;;17.30;100.00;100084.22;4927996;29;20122;-93
2023/09/17 01:32:13;;;;;;;0.90;0.65;;;;;;;17.36;100.00;100093.50;4942696;28;20053;-89
2023/09/17 01:34:43;;;;;;;2.22;0.80;;;;;;;17.28;100.00;100067.09;4955302;28;20105;-92
2023/09/17 01:37:11;;;;;;;0.40;0.40;;;;;;;17.23;100.00;100073.38;4927330;28;20065;-93
2023/09/17 01:39:46;;;;;;;0.50;0.35;;;;;;;17.28;100.00;100078.31;4919663;28;20050;-94
2023/09/17 01:42:12;;;;;;;0.68;0.55;;;;;;;17.32;100.00;100078.88;4961967;28;20038;-93
2023/09/17 01:44:38;;;;;;;0.15;0.15;;;;;;;17.22;100.00;100063.44;4941291;28;20222;-93
2023/09/17 01:47:04;;;;;;;0.63;0.63;;;;;;;17.32;100.00;100089.31;4962886;28;20503;-93
2023/09/17 01:49:32;;;;;;;0.63;0.55;;;;;;;17.32;100.00;100075.31;4946729;28;20054;-93
2023/09/17 01:51:57;;;;;;;1.05;0.80;;;;;;;17.36;100.00;100079.47;4954851;28;20289;-93
2023/09/17 01:54:24;;;;;;;0.40;0.38;;;;;;;17.34;100.00;100078.41;4954238;28;20082;-93
2023/09/17 01:56:49;;;;;;;0.65;0.60;;;;;;;17.32;100.00;100076.09;4948430;28;20043;-92
2023/09/17 01:59:15;;;;;;;0.77;0.68;;;;;;;17.35;100.00;100071.56;4969466;28;20561;-93
2023/09/17 02:01:42;;;;;;;0.85;0.60;;;;;;;17.31;100.00;100068.19;4940126;28;20045;-93
2023/09/17 02:04:08;;;;;;;0.60;0.28;;;;;;;17.36;100.00;100079.47;4940127;29;20047;-93
2023/09/17 02:06:35;;;;;;;0.30;0.30;;;;;;;17.29;100.00;100060.25;4965328;28;20514;-94
2023/09/17 02:09:00;;;;;;;2.58;0.63;;;;;;;17.37;100.00;100072.63;4962626;28;20055;-92
2023/09/17 02:11:26;;;;;;;0.88;0.80;;;;;;;17.43;100.00;100072.72;4926901;28;20062;-93
2023/09/17 02:13:52;;;;;;;0.25;0.25;;;;;;;17.22;100.00;100038.19;4944727;29;20038;-92
2023/09/17 02:16:17;;;;;;;0.50;0.50;;;;;;;17.46;100.00;100075.34;4951679;29;20031;-93
2023/09/17 02:18:43;;;;;;;0.20;0.20;;;;;;;17.49;100.00;100068.75;4935175;29;20035;-93
2023/09/17 02:21:08;;;;;;;0.20;0.20;;;;;;;17.42;100.00;100062.75;4936374;29;20054;-92
2023/09/17 02:23:34;;;;;;;0.20;0.20;;;;;;;17.51;100.00;100065.47;4955334;28;20061;-93
2023/09/17 02:26:00;;;;;;;0.40;0.40;;;;;;;17.46;100.00;100064.13;4935350;29;20047;-92
2023/09/17 02:28:26;;;;;;;0.35;0.35;;;;;;;17.45;100.00;100073.78;4939143;29;20043;-93
2023/09/17 02:30:52;;;;;;;0.30;0.30;;;;;;;17.37;100.00;100061.41;4978096;28;20534;-93
2023/09/17 02:33:17;;;;;;;1.63;0.95;;;;;;;17.39;100.00;100066.53;4919098;29;20031;-93
2023/09/17 02:35:43;;;;;;;0.52;0.32;;;;;;;17.20;100.00;100040.69;4917128;29;20236;-93
2023/09/17 02:38:09;;;;;;;0.63;0.63;;;;;;;17.35;100.00;100069.50;4960431;28;20039;-92
2023/09/17 02:40:34;;;;;;;0.20;0.15;;;;;;;17.31;100.00;100063.31;4932561;29;20047;-92
2023/09/17 02:43:01;;;;;;;0.63;0.63;;;;;;;17.31;100.00;100068.91;4926348;29;20038;-92
2023/09/17 02:45:27;;;;;;;0.30;0.30;;;;;;;17.23;100.00;100050.94;4945161;29;20063;-93
2023/09/17 02:47:53;;;;;;;0.20;0.20;;;;;;;17.32;100.00;100064.09;4939175;28;20508;-92
2023/09/17 02:50:19;;;;;;;0.38;0.38;;;;;;;17.27;100.00;100060.72;4920099;28;20038;-93
2023/09/17 02:52:45;;;;;;;0.10;0.10;;;;;;;17.25;100.00;100049.22;4941872;29;20528;-92
2023/09/17 02:55:11;;;;;;;1.65;0.93;;;;;;;17.27;100.00;100056.38;4961423;28;20070;-93
2023/09/17 02:57:36;;;;;;;2.33;0.85;;;;;;;17.23;100.00;100046.09;4945327;28;20042;-92
2023/09/17 03:00:05;;;;;;;1.45;1.35;;;;;;;17.18;100.00;100037.63;4918622;29;20054;-92
2023/09/17 03:02:30;;;;;;;0.90;0.50;;;;;;;17.19;100.00;100039.13;4942240;29;20059;-93
2023/09/17 03:04:58;;;;;;;1.00;0.65;;;;;;;17.29;100.00;100046.22;4912149;29;20047;-93
2023/09/17 03:07:25;;;;;;;0.17;0.17;;;;;;;17.23;100.00;100039.72;4929514;28;20043;-92
2023/09/17 03:09:51;;;;;;;0.68;0.45;;;;;;;17.13;100.00;100030.66;4935659;29;20043;-93
2023/09/17 03:12:17;;;;;;;0.38;0.38;;;;;;;17.13;100.00;100022.25;4931876;29;20180;-94
2023/09/17 03:14:42;;;;;;;1.45;0.90;;;;;;;17.21;100.00;100047.84;4925895;28;20466;-93
2023/09/17 03:17:09;;;;;;;0.30;0.30;;;;;;;17.21;100.00;100047.84;4925941;28;20045;-93
2023/09/17 03:19:35;;;;;;;1.45;1.02;;;;;;;17.22;100.00;100043.81;4943772;29;20039;-94
2023/09/17 03:22:02;;;;;;;0.80;0.55;;;;;;;17.03;100.00;100025.59;4944533;29;20046;-92
2023/09/17 03:24:28;;;;;;;0.35;0.35;;;;;;;17.10;100.00;100037.22;4932240;29;20086;-92
2023/09/17 03:26:54;;;;;;;1.67;1.05;;;;;;;17.01;100.00;100040.09;4941483;28;20491;-93
2023/09/17 03:29:20;;;;;;;2.97;1.25;;;;;;;16.91;100.00;100030.22;4934432;29;20058;-93
2023/09/17 03:31:48;;;;;;;1.13;0.95;;;;;;;17.01;100.00;100036.53;4935339;29;20078;-93
2023/09/17 03:34:14;;;;;;;1.08;0.73;;;;;;;16.99;100.00;100042.59;4924504;28;20113;-94
2023/09/17 03:36:39;;;;;;;1.10;1.00;;;;;;;16.88;100.00;100030.41;4941866;29;20039;-93
2023/09/17 03:39:06;;;;;;;1.27;0.95;;;;;;;16.92;100.00;100033.81;4927746;29;20048;-92
2023/09/17 03:41:32;;;;;;;0.40;0.40;;;;;;;16.96;100.00;100045.59;4945952;28;20059;-93
2023/09/17 03:43:58;;;;;;;0.63;0.63;;;;;;;16.90;100.00;100036.31;4963258;28;20095;-94
2023/09/17 03:46:24;;;;;;;0.68;0.57;;;;;;;16.85;100.00;100037.75;4935120;29;20031;-93
2023/09/17 03:48:50;;;;;;;0.85;0.77;;;;;;;16.91;100.00;100041.44;4933757;29;20403;-93
2023/09/17 03:51:16;;;;;;;0.20;0.20;;;;;;;16.84;100.00;100041.81;4947114;28;20083;-93
2023/09/17 03:53:43;;;;;;;1.10;0.95;;;;;;;16.73;100.00;100036.78;4940907;28;20134;-93
2023/09/17 03:56:11;;;;;;;1.33;1.23;;;;;;;16.71;100.00;100038.50;4941149;29;20043;-93
2023/09/17 03:58:37;;;;;;;1.25;1.15;;;;;;;16.74;100.00;100048.75;4940812;28;20485;-92
2023/09/17 04:01:06;;;;;;;0.47;0.47;;;;;;;16.64;100.00;100047.25;4939866;28;20435;-94
2023/09/17 04:03:32;;;;;;;1.02;0.95;;;;;;;16.70;100.00;100048.91;4942788;29;20044;-93
2023/09/17 04:05:57;;;;;;;0.60;0.60;;;;;;;16.69;100.00;100052.22;4921423;29;20056;-93
2023/09/17 04:08:24;;;;;;;0.75;0.50;;;;;;;16.68;100.00;100050.66;4947425;29;20055;-92
2023/09/17 04:10:54;;;;;;;0.88;0.88;;;;;;;16.45;100.00;100021.41;4947561;28;20051;-93
2023/09/17 04:13:19;;;;;;;0.52;0.52;;;;;;;16.59;100.00;100040.28;4957217;28;20188;-93
2023/09/17 04:15:45;;;;;;;0.30;0.30;;;;;;;16.61;100.00;100051.03;4932985;28;20142;-93
2023/09/17 04:18:10;;;;;;;0.65;0.65;;;;;;;16.45;100.00;100031.81;4958057;28;20043;-93
2023/09/17 04:20:36;;;;;;;0.68;0.68;;;;;;;16.56;100.00;100049.63;4923920;28;20032;-92
2023/09/17 04:23:03;;;;;;;0.60;0.60;;;;;;;16.67;100.00;100065.91;4961070;28;20403;-93
2023/09/17 04:25:29;;;;;;;0.75;0.75;;;;;;;16.62;100.00;100061.72;4963488;28;20047;-93
2023/09/17 04:27:55;;;;;;;2.15;0.85;;;;;;;16.65;100.00;100058.00;4933777;29;20035;-92
2023/09/17 04:30:22;;;;;;;0.65;0.52;;;;;;;16.58;100.00;100046.38;4936380;28;20126;-92
2023/09/17 04:32:50;;;;;;;0.35;0.35;;;;;;;16.56;100.00;100055.22;4925757;29;20055;-92
2023/09/17 04:35:17;;;;;;;0.57;0.57;;;;;;;16.42;100.00;100046.78;4948302;28;20038;-92
2023/09/17 04:37:43;;;;;;;0.45;0.40;;;;;;;16.51;100.00;100063.50;4944473;28;20048;-93
2023/09/17 04:40:11;;;;;;;0.40;0.30;;;;;;;16.47;100.00;100065.72;4947913;28;20043;-93
2023/09/17 04:42:40;;;;;;;0.55;0.40;;;;;;;16.43;100.00;100067.91;4944152;29;20047;-93
2023/09/17 04:45:08;;;;;;;0.68;0.68;;;;;;;16.44;100.00;100067.44;4918304;29;20043;-92
2023/09/17 04:47:35;;;;;;;3.10;1.48;;;;;;;16.38;100.00;100049.75;4953457;28;20047;-93
2023/09/17 04:50:09;;;;;;;1.67;0.88;;;;;;;16.48;100.00;100065.25;4940894;28;20438;-93
2023/09/17 04:52:36;;;;;;;1.15;1.10;;;;;;;16.46;100.00;100078.94;4927504;29;20052;-92
2023/09/17 04:55:03;;;;;;;1.15;1.00;;;;;;;16.36;100.00;100068.28;4956789;28;20039;-92
2023/09/17 04:57:29;;;;;;;1.90;1.33;;;;;;;16.43;100.00;100067.91;4945929;29;20058;-93
2023/09/17 04:59:55;;;;;;;1.00;0.88;;;;;;;16.50;100.00;100079.53;4936993;29;20503;-93
2023/09/17 05:02:21;;;;;;;0.22;0.22;;;;;;;16.50;100.00;100096.31;4957009;28;20097;-93
2023/09/17 05:04:47;;;;;;;0.35;0.35;;;;;;;16.52;100.00;100093.84;4917216;29;20040;-93
2023/09/17 05:07:14;;;;;;;0.43;0.43;;;;;;;16.48;100.00;100065.25;4934299;29;20052;-93
2023/09/17 05:09:40;;;;;;;1.55;1.23;;;;;;;16.56;100.00;100080.44;4932874;29;20075;-93
2023/09/17 05:12:08;;;;;;;1.15;0.45;;;;;;;16.66;100.00;100098.00;4906787;29;20547;-92
2023/09/17 05:14:34;;;;;;;0.68;0.68;;;;;;;16.69;100.00;100100.59;4946615;28;20039;-92
2023/09/17 05:17:00;;;;;;;0.80;0.80;;;;;;;16.69;100.00;100097.03;4942371;28;20038;-93
2023/09/17 05:19:26;;;;;;;1.88;1.20;;;;;;;16.63;100.00;100082.13;4950087;28;20043;-93
2023/09/17 05:21:52;;;;;;;0.35;0.32;;;;;;;16.73;100.00;100092.78;4930422;29;20031;-93
2023/09/17 05:24:17;;;;;;;0.45;0.45;;;;;;;16.74;100.00;100088.72;4971689;28;20049;-93
2023/09/17 05:26:43;;;;;;;3.60;1.88;;;;;;;16.77;100.00;100090.59;4925754;29;20114;-92
2023/09/17 05:29:11;;;;;;;1.05;0.95;;;;;;;16.63;100.00;100071.69;4947844;28;20500;-92
2023/09/17 05:31:37;;;;;;;1.02;0.75;;;;;;;16.93;100.00;100111.00;4930125;29;20058;-92
2023/09/17 05:34:03;;;;;;;0.82;0.82;;;;;;;16.98;100.00;100107.56;4935929;29;20039;-92
2023/09/17 05:36:30;;;;;;;0.25;0.25;;;;;;;17.01;100.00;100106.59;4964685;28;20507;-93
2023/09/17 05:38:57;;;;;;;0.90;0.52;;;;;;;17.06;100.00;100117.13;4953455;28;20035;-93
2023/09/17 05:41:23;;;;;;;0.50;0.50;;;;;;;17.09;100.00;100119.75;4952976;28;20106;-93
2023/09/17 05:43:48;;;;;;;0.30;0.30;;;;;;;17.18;100.00;100118.91;4932829;29;20040;-92
2023/09/17 05:46:14;;;;;;;0.77;0.63;;;;;;;17.27;100.00;100124.41;4928940;29;20053;-92
2023/09/17 05:48:42;;;;;;;0.90;0.90;;;;;;;17.32;100.00;100132.16;4917680;29;20056;-92
2023/09/17 05:51:11;;;;;;;0.40;0.40;;;;;;;17.49;100.00;100138.84;4944795;29;20050;-92
2023/09/17 05:53:37;;;;;;;1.13;1.13;;;;;;;17.63;100.00;100138.09;4933552;29;20043;-93
2023/09/17 05:56:07;;;;;;;0.43;0.43;;;;;;;17.79;100.00;100141.72;4948103;28;20383;-92
2023/09/17 05:58:34;;;;;;;1.63;0.93;;;;;;;17.91;100.00;100140.66;4934615;29;20134;-93
2023/09/17 06:01:01;;;;;;;0.65;0.65;;;;;;;18.04;100.00;100129.88;4928587;29;20032;-92
2023/09/17 06:03:27;;;;;;;0.60;0.60;;;;;;;18.26;100.00;100144.28;4948383;29;20478;-93
2023/09/17 06:05:55;;;;;;;0.85;0.52;;;;;;;18.46;100.00;100144.31;4950667;28;20050;-93
2023/09/17 06:08:21;;;;;;;0.35;0.35;;;;;;;18.55;100.00;100135.81;4924266;28;20502;-93
2023/09/17 06:10:47;;;;;;;0.95;0.95;;;;;;;18.75;100.00;100153.94;4953263;28;20074;-93
2023/09/17 06:13:12;;;;;;;1.52;1.42;;;;;;;18.81;100.00;100137.91;4940205;29;20468;-92
2023/09/17 06:15:38;;;;;;;0.17;0.17;;;;;;;18.94;100.00;100146.78;4952578;28;20043;-93
2023/09/17 06:18:04;;;;;;;0.75;0.73;;;;;;;19.02;100.00;100142.28;4930075;28;20050;-92
2023/09/17 06:20:30;;;;;;;1.67;1.13;;;;;;;19.05;100.00;100138.47;4961547;28;20865;-92
2023/09/17 06:22:56;;;;;;;0.63;0.63;;;;;;;19.22;100.00;100147.88;4947727;29;20535;-92
2023/09/17 06:25:23;;;;;;;1.88;1.13;;;;;;;19.49;100.00;100150.25;4978975;28;20142;-93
2023/09/17 06:27:48;;;;;;;4.25;1.83;;;;;;;19.67;100.00;100131.50;4963003;28;20494;-92
2023/09/17 06:30:14;;;;;;;0.60;0.55;;;;;;;19.92;100.00;100159.63;4942096;28;20059;-92
2023/09/17 06:32:40;;;;;;;0.68;0.40;;;;;;;20.06;100.00;100157.94;4955619;28;20125;-93
2023/09/17 06:35:06;;;;;;;0.65;0.65;;;;;;;20.29;100.00;100144.84;4921558;28;20127;-92
2023/09/17 06:37:31;;;;;;;0.60;0.60;;;;;;;20.40;100.00;100148.50;4958496;28;20070;-93
2023/09/17 06:39:57;;;;;;;0.32;0.32;;;;;;;20.42;100.00;100154.41;4944697;28;20051;-92
2023/09/17 06:42:23;;;;;;;0.65;0.65;;;;;;;20.38;100.00;100156.69;4936696;29;20503;-92
2023/09/17 06:44:50;;;;;;;1.05;0.70;;;;;;;20.36;100.00;100152.84;4948721;28;20113;-92
2023/09/17 06:47:15;;;;;;;0.65;0.65;;;;;;;20.44;100.00;100163.13;4931444;29;20043;-93
2023/09/17 06:49:41;;;;;;;2.15;1.27;;;;;;;20.57;100.00;100165.53;4932741;28;20404;-92
2023/09/17 06:52:07;;;;;;;1.35;1.25;;;;;;;20.66;100.00;100153.28;4930268;28;20078;-93
2023/09/17 06:54:33;;;;;;;0.32;0.32;;;;;;;20.74;100.00;100160.00;4944922;28;20491;-92
2023/09/17 06:56:58;;;;;;;0.80;0.55;;;;;;;20.92;100.00;100165.97;4966598;28;20406;-92
2023/09/17 06:59:24;;;;;;;1.17;0.60;;;;;;;21.03;100.00;100168.06;4954180;28;20051;-93
2023/09/17 07:01:49;;;;;;;5.25;1.25;;;;;;;21.10;100.00;100186.56;4922965;28;20031;-92
2023/09/17 07:04:15;;;;;;;0.95;0.93;;;;;;;21.12;100.00;100165.06;4944492;28;20055;-93
2023/09/17 07:06:41;;;;;;;0.38;0.38;;;;;;;21.14;100.00;100165.34;4932268;29;20555;-93
2023/09/17 07:09:07;;;;;;;0.63;0.63;;;;;;;21.51;100.00;100153.16;4930738;28;20047;-92
2023/09/17 07:11:33;;;;;;;0.68;0.68;;;;;;;21.72;100.00;100157.25;4933716;28;20023;-93
2023/09/17 07:14:02;;;;;;;0.82;0.82;;;;;;;21.67;100.00;100166.53;4954477;28;20459;-93
2023/09/17 07:16:27;;;;;;;0.80;0.60;;;;;;;21.63;100.00;100147.00;4932267;29;20047;-93
2023/09/17 07:18:54;;;;;;;0.70;0.70;;;;;;;21.77;100.00;100164.97;4929185;28;20051;-93
2023/09/17 07:21:20;;;;;;;1.10;1.00;;;;;;;21.89;100.00;100146.78;4942941;28;20423;-92
2023/09/17 07:23:50;;;;;;;0.85;0.70;;;;;;;22.13;100.00;100157.59;4969315;28;20042;-93
2023/09/17 07:26:16;;;;;;;1.35;0.85;;;;;;;22.19;100.00;100139.38;4947181;28;20043;-93
2023/09/17 07:28:43;;;;;;;0.38;0.38;;;;;;;22.22;100.00;100155.28;4937160;28;20046;-92
2023/09/17 07:31:10;;;;;;;0.93;0.88;;;;;;;22.29;100.00;100153.97;4951886;29;20086;-93
2023/09/17 07:33:39;;;;;;;0.98;0.90;;;;;;;22.17;100.00;100158.09;4934461;28;20039;-93
2023/09/17 07:36:05;;;;;;;1.30;0.93;;;;;;;22.17;100.00;100156.03;4938686;28;20059;-92
2023/09/17 07:38:32;;;;;;;0.85;0.75;;;;;;;22.46;100.00;100165.25;4938040;29;20150;-93
2023/09/17 07:40:57;;;;;;;1.20;1.10;;;;;;;22.67;100.00;100169.34;4918866;29;20058;-93
2023/09/17 07:43:23;;;;;;;0.65;0.65;;;;;;;22.84;100.00;100155.97;4963281;28;20122;-93
2023/09/17 07:45:48;;;;;;;0.73;0.73;;;;;;;23.02;100.00;100172.34;4926361;29;20079;-92
2023/09/17 07:48:14;;;;;;;1.63;1.42;;;;;;;23.15;100.00;100166.13;4932318;29;20055;-93
2023/09/17 07:50:40;;;;;;;0.75;0.63;;;;;;;23.16;100.00;100162.78;4925696;29;20095;-93
2023/09/17 07:53:07;;;;;;;4.68;1.17;;;;;;;23.29;100.00;100169.94;4945990;28;20354;-93
2023/09/17 07:55:33;;;;;;;0.63;0.63;;;;;;;23.37;100.00;100165.25;4920737;29;20048;-93
2023/09/17 07:57:58;;;;;;;0.57;0.52;;;;;;;23.47;100.00;100164.44;4929886;29;20463;-92
2023/09/17 08:00:25;;;;;;;1.85;0.95;;;;;;;23.72;100.00;100162.50;4931378;29;20078;-92
2023/09/17 08:02:50;;;;;;;1.70;1.60;;;;;;;24.09;100.00;100171.25;4945027;28;20056;-92
2023/09/17 08:05:17;;;;;;;1.33;1.23;;;;;;;24.22;100.00;100164.22;4924774;29;20122;-92
2023/09/17 08:07:43;;;;;;;0.52;0.52;;;;;;;24.23;99.18;100171.41;4960156;28;20468;-93
2023/09/17 08:10:09;;;;;;;1.20;1.10;;;;;;;23.95;100.00;100143.25;4917291;28;20054;-92
2023/09/17 08:12:35;;;;;;;1.25;1.15;;;;;;;23.96;100.00;100182.41;4937716;28;20046;-93
2023/09/17 08:15:01;;;;;;;1.38;0.98;;;;;;;23.79;100.00;100172.47;4914864;29;20048;-92
2023/09/17 08:17:27;;;;;;;0.55;0.55;;;;;;;23.57;100.00;100173.41;4946847;29;20039;-92
2023/09/17 08:19:52;;;;;;;0.98;0.60;;;;;;;23.66;100.00;100192.91;4943173;28;20051;-91
2023/09/17 08:22:18;;;;;;;0.77;0.77;;;;;;;23.80;100.00;100163.47;4953370;28;20078;-92
2023/09/17 08:24:44;;;;;;;0.57;0.52;;;;;;;24.02;100.00;100183.13;4949890;28;20036;-92
2023/09/17 08:27:10;;;;;;;1.25;1.15;;;;;;;24.13;100.00;100190.78;4946502;28;20055;-92
2023/09/17 08:29:35;;;;;;;0.77;0.77;;;;;;;24.31;100.00;100180.88;4931040;29;20042;-92
2023/09/17 08:32:01;;;;;;;0.65;0.65;;;;;;;24.33;100.00;100181.13;4931125;28;20106;-93
2023/09/17 08:34:26;;;;;;;2.10;1.90;;;;;;;24.34;100.00;100168.47;4942863;28;20039;-92
2023/09/17 08:36:53;;;;;;;0.95;0.88;;;;;;;24.02;100.00;100185.97;4940597;28;20880;-92
2023/09/17 08:39:19;;;;;;;2.00;1.85;;;;;;;24.25;100.00;100174.50;4940778;29;20535;-92
2023/09/17 08:41:45;;;;;;;0.93;0.80;;;;;;;24.60;100.00;100169.50;4930768;29;20487;-93
2023/09/17 08:44:12;;;;;;;1.10;1.00;;;;;;;24.90;100.00;100174.38;4917735;29;20034;-93
2023/09/17 08:46:38;;;;;;;1.05;0.98;;;;;;;24.78;99.85;100173.72;4950592;28;20518;-92
2023/09/17 08:49:04;;;;;;;1.38;0.90;;;;;;;24.36;100.00;100151.69;4942430;28;20039;-92
2023/09/17 08:51:32;;;;;;;1.05;0.98;;;;;;;24.31;100.00;100161.03;4966783;28;20578;-92
2023/09/17 08:54:40;;;;;;;3.25;1.05;;;;;;;24.60;100.00;100174.41;4933904;29;20040;-92
2023/09/17 08:57:07;;;;;;;1.85;0.85;;;;;;;24.85;100.00;100166.69;4894656;29;20048;-92
2023/09/17 08:59:38;;;;;;;1.02;0.98;;;;;;;25.29;98.61;100190.94;4896532;29;20079;-92
2023/09/17 09:02:31;;;;;;;1.50;1.40;;;;;;;25.40;96.67;100168.06;4932740;28;20051;-92
2023/09/17 09:04:56;;;;;;;0.77;0.77;;;;;;;25.81;94.15;100179.13;4932719;29;20122;-93
2023/09/17 09:07:22;;;;;;;1.25;1.15;;;;;;;25.75;93.48;100173.53;4934092;28;20122;-93
2023/09/17 09:09:53;;;;;;;0.50;0.50;;;;;;;25.86;93.06;100170.53;4950186;28;20043;-92
2023/09/17 09:12:20;;;;;;;0.77;0.77;;;;;;;26.04;91.22;100163.28;4949707;28;20061;-93
2023/09/17 09:14:47;;;;;;;2.78;1.70;;;;;;;26.06;91.32;100188.31;4937398;28;20076;-92
2023/09/17 09:17:13;;;;;;;1.50;1.40;;;;;;;26.09;89.70;100176.63;4940238;28;20043;-93
2023/09/17 09:19:39;;;;;;;1.02;0.93;;;;;;;25.82;90.96;100170.06;4920455;28;20038;-92
2023/09/17 09:22:05;;;;;;;1.20;0.85;;;;;;;25.57;94.55;100165.78;4953518;28;20133;-92
2023/09/17 09:24:48;;;;;;;2.78;1.75;;;;;;;25.93;91.36;100169.91;4930071;29;20130;-93
2023/09/17 09:27:14;;;;;;;1.00;0.90;;;;;;;25.92;92.94;100162.66;4936644;28;20042;-92
2023/09/17 09:29:42;;;;;;;1.25;1.05;;;;;;;26.16;91.67;100163.84;4911722;29;20054;-93
2023/09/17 09:32:11;;;;;;;1.20;1.10;;;;;;;26.31;87.71;100159.22;4950241;28;20377;-92
2023/09/17 09:34:38;;;;;;;1.25;1.15;;;;;;;26.69;85.00;100176.88;4952253;28;20046;-93
2023/09/17 09:37:08;;;;;;;1.05;0.95;;;;;;;27.01;85.45;100178.91;4974067;28;20026;-92
2023/09/17 09:39:37;;;;;;;1.20;1.10;;;;;;;27.48;81.50;100170.41;4949155;28;20051;-92
2023/09/17 09:42:07;;;;;;;2.78;1.50;;;;;;;27.58;75.29;100169.41;4952993;28;20041;-93
2023/09/17 09:44:34;;;;;;;1.35;1.23;;;;;;;27.79;77.14;100167.34;4967627;28;20042;-93
2023/09/17 09:47:02;;;;;;;0.85;0.85;;;;;;;27.91;72.85;100172.78;4957284;28;20142;-92
2023/09/17 09:49:28;;;;;;;1.10;1.00;;;;;;;27.96;70.84;100163.34;4939658;28;20123;-93
2023/09/17 09:51:57;;;;;;;1.15;1.08;;;;;;;27.87;69.16;100155.25;4933923;29;20051;-93
2023/09/17 09:54:23;;;;;;;1.50;1.40;;;;;;;27.60;69.79;100154.59;4962061;28;20049;-93
2023/09/17 09:56:49;;;;;;;1.40;1.30;;;;;;;27.22;72.82;100160.56;4956519;28;20514;-93
2023/09/17 09:59:15;;;;;;;1.38;1.27;;;;;;;27.20;74.07;100168.16;4961127;28;20045;-92
2023/09/17 10:01:41;;;;;;;1.17;0.80;;;;;;;27.26;74.35;100166.69;4953087;29;20051;-93
2023/09/17 10:04:13;;;;;;;3.80;1.85;;;;;;;27.52;75.63;100165.91;4962198;28;20399;-93
2023/09/17 10:06:39;;;;;;;1.15;0.95;;;;;;;27.42;73.23;100161.94;4952984;29;20481;-93
2023/09/17 10:09:06;;;;;;;0.85;0.85;;;;;;;27.37;74.18;100160.00;4920586;29;20035;-93
2023/09/17 10:11:32;;;;;;;3.00;2.47;;;;;;;27.11;77.02;100165.75;4928430;28;20055;-93
2023/09/17 10:14:05;;;;;;;0.70;0.70;;;;;;;27.30;74.37;100172.81;4955048;28;20047;-93
2023/09/17 10:16:33;;;;;;;1.05;0.93;;;;;;;26.64;79.12;100162.78;4936821;29;20039;-93
2023/09/17 10:19:00;;;;;;;2.00;1.27;;;;;;;26.79;78.75;100163.75;4950451;29;20488;-93
2023/09/17 10:21:27;;;;;;;1.60;1.40;;;;;;;26.93;75.58;100138.94;4945653;28;20050;-92
2023/09/17 10:23:54;;;;;;;1.50;1.20;;;;;;;27.26;71.45;100154.53;4955523;28;20035;-92
2023/09/17 10:26:23;;;;;;;1.20;1.10;;;;;;;27.88;71.85;100162.50;4929533;28;20478;-93
2023/09/17 10:28:51;;;;;;;1.83;1.73;;;;;;;27.83;64.79;100152.75;4925664;28;20042;-93
2023/09/17 10:31:16;;;;;;;2.05;1.88;;;;;;;27.73;65.29;100154.56;4946047;28;20106;-93
2023/09/17 10:33:44;;;;;;;2.03;1.83;;;;;;;28.22;63.38;100157.53;4935613;28;20055;-92
2023/09/17 10:36:09;;;;;;;1.60;1.10;;;;;;;28.73;59.65;100154.91;4945590;28;20093;-92
2023/09/17 10:38:35;;;;;;;2.03;1.80;;;;;;;28.86;57.96;100156.88;4955238;28;20055;-92
2023/09/17 10:41:04;;;;;;;1.73;1.60;;;;;;;29.28;53.69;100158.25;4916725;29;20039;-92
2023/09/17 10:43:32;;;;;;;2.28;1.65;;;;;;;29.36;52.35;100153.34;4948633;28;20050;-93
2023/09/17 10:45:59;;;;;;;2.05;1.85;;;;;;;29.41;50.68;100155.28;4932573;29;20516;-93
2023/09/17 10:48:25;;;;;;;1.38;1.27;;;;;;;29.58;49.24;100152.69;4931741;29;20103;-92
2023/09/17 10:50:52;;;;;;;1.83;1.25;;;;;;;29.39;51.39;100152.25;4932790;29;20488;-92
2023/09/17 10:53:18;;;;;;;1.35;1.15;;;;;;;29.30;49.21;100149.91;4933400;29;20334;-93
2023/09/17 10:55:48;;;;;;;1.85;1.45;;;;;;;29.13;52.09;100129.63;4951809;28;20207;-93
2023/09/17 10:58:25;;;;;;;0.70;0.70;;;;;;;29.54;51.71;100151.50;4916437;29;20082;-93
2023/09/17 11:00:50;;;;;;;1.60;1.02;;;;;;;29.80;48.79;100150.44;4944190;28;20047;-93
2023/09/17 11:03:19;;;;;;;0.60;0.60;;;;;;;29.95;47.19;100154.13;4915408;29;20492;-94
2023/09/17 11:05:46;;;;;;;1.15;0.95;;;;;;;29.80;45.96;100144.72;4946189;28;20047;-93
2023/09/17 11:08:11;;;;;;;1.55;0.98;;;;;;;29.44;47.13;100154.13;4944626;29;20107;-93
2023/09/17 11:10:41;;;;;;;0.98;0.98;;;;;;;29.24;47.20;100146.41;4942353;28;20498;-92
2023/09/17 11:13:11;;;;;;;4.95;1.15;;;;;;;29.41;48.29;100149.56;4951234;29;20055;-93
2023/09/17 11:15:37;;;;;;;0.68;0.68;;;;;;;29.36;47.97;100152.59;4938098;29;20028;-93
2023/09/17 11:18:04;;;;;;;1.73;1.30;;;;;;;29.40;48.46;100116.59;4947689;29;20044;-93
2023/09/17 11:20:31;;;;;;;1.27;1.17;;;;;;;30.01;47.67;100143.25;4930483;29;20051;-93